createdAt,value
2017-04-04T00:00:45.261Z,0
2017-04-04T00:01:45.244Z,0
2017-04-04T00:02:45.222Z,0
2017-04-04T00:03:45.208Z,0
2017-04-04T00:04:44.893Z,0
2017-04-04T00:05:45.174Z,0
2017-04-04T00:06:45.165Z,0
2017-04-04T00:07:45.149Z,0
2017-04-04T00:08:45.130Z,0
2017-04-04T00:09:45.116Z,0
2017-04-04T00:10:45.099Z,0
2017-04-04T00:11:44.789Z,0
2017-04-04T00:12:44.759Z,0
2017-04-04T00:13:45.045Z,0
2017-04-04T00:14:45.182Z,0
2017-04-04T00:15:45.017Z,0
2017-04-04T00:16:45.008Z,0
2017-04-04T00:17:44.981Z,0
2017-04-04T00:18:44.971Z,0
2017-04-04T00:19:44.655Z,0
2017-04-04T00:20:44.935Z,0
2017-04-04T00:21:44.924Z,0
2017-04-04T00:22:44.904Z,0
2017-04-04T00:23:44.884Z,0
2017-04-04T00:24:44.874Z,0
2017-04-04T00:25:44.855Z,0
2017-04-04T00:26:44.839Z,0
2017-04-04T00:27:44.824Z,0
2017-04-04T00:28:44.505Z,0
2017-04-04T00:29:44.794Z,0
2017-04-04T00:30:44.825Z,0
2017-04-04T00:31:44.771Z,0
2017-04-04T00:32:44.737Z,0
2017-04-04T00:33:44.723Z,0
2017-04-04T00:34:44.715Z,0
2017-04-04T00:35:44.699Z,0
2017-04-04T00:36:44.683Z,0
2017-04-04T00:37:44.370Z,0
2017-04-04T00:38:44.350Z,0
2017-04-04T00:39:44.671Z,0
2017-04-04T00:40:44.613Z,0
2017-04-04T00:41:44.603Z,0
2017-04-04T00:42:44.578Z,0
2017-04-04T00:43:44.566Z,0
2017-04-04T00:44:44.554Z,0
2017-04-04T00:45:44.533Z,0
2017-04-04T00:46:44.518Z,0
2017-04-04T00:47:44.499Z,0
2017-04-04T00:48:44.488Z,0
2017-04-04T00:49:44.473Z,0
2017-04-04T00:50:44.449Z,0
2017-04-04T00:51:44.435Z,0
2017-04-04T00:52:44.473Z,0
2017-04-04T00:53:44.402Z,0
2017-04-04T00:54:44.387Z,0
2017-04-04T00:55:44.372Z,0
2017-04-04T00:56:44.361Z,0
2017-04-04T00:57:44.343Z,0
2017-04-04T00:58:44.326Z,0
2017-04-04T00:59:44.315Z,0
2017-04-04T01:00:44.305Z,0
2017-04-04T01:01:44.284Z,0
2017-04-04T01:02:44.265Z,0
2017-04-04T01:03:44.253Z,0
2017-04-04T01:04:44.238Z,0
2017-04-04T01:05:43.915Z,0
2017-04-04T01:06:43.906Z,0
2017-04-04T01:07:43.584Z,0
2017-04-04T01:08:43.868Z,0
2017-04-04T01:09:44.160Z,0
2017-04-04T01:10:44.141Z,0
2017-04-04T01:11:44.134Z,0
2017-04-04T01:12:44.104Z,0
2017-04-04T01:13:44.100Z,0
2017-04-04T01:14:44.082Z,0
2017-04-04T01:15:44.066Z,0
2017-04-04T01:16:44.058Z,0
2017-04-04T01:17:44.031Z,0
2017-04-04T01:18:44.019Z,0
2017-04-04T01:19:44.006Z,0
2017-04-04T01:20:43.991Z,0
2017-04-04T01:21:43.971Z,0
2017-04-04T01:22:43.960Z,0
2017-04-04T01:23:43.934Z,0
2017-04-04T01:24:43.924Z,0
2017-04-04T01:25:43.909Z,0
2017-04-04T01:26:43.889Z,0
2017-04-04T01:27:43.877Z,0
2017-04-04T01:28:43.553Z,0
2017-04-04T01:29:43.542Z,0
2017-04-04T01:30:43.831Z,0
2017-04-04T01:31:43.809Z,0
2017-04-04T01:32:43.802Z,0
2017-04-04T01:33:43.790Z,0
2017-04-04T01:34:43.762Z,0
2017-04-04T01:35:43.792Z,0
2017-04-04T01:36:43.730Z,0
2017-04-04T01:37:43.410Z,0
2017-04-04T01:38:43.754Z,0
2017-04-04T01:39:43.682Z,0
2017-04-04T01:40:43.669Z,0
2017-04-04T01:41:43.645Z,0
2017-04-04T01:42:43.631Z,0
2017-04-04T01:43:43.654Z,0
2017-04-04T01:44:43.598Z,0
2017-04-04T01:45:43.587Z,0
2017-04-04T01:46:43.674Z,0
2017-04-04T01:47:43.551Z,0
2017-04-04T01:48:43.535Z,0
2017-04-04T01:49:43.521Z,0
2017-04-04T01:50:43.506Z,0
2017-04-04T01:51:43.480Z,0
2017-04-04T01:52:43.465Z,0
2017-04-04T01:53:43.454Z,0
2017-04-04T01:54:43.434Z,0
2017-04-04T01:55:43.425Z,0
2017-04-04T01:56:43.405Z,0
2017-04-04T01:57:43.382Z,0
2017-04-04T01:58:43.380Z,0
2017-04-04T01:59:43.356Z,0
2017-04-04T02:00:43.344Z,0
2017-04-04T02:01:43.022Z,0
2017-04-04T02:02:43.306Z,0
2017-04-04T02:03:43.295Z,0
2017-04-04T02:04:43.276Z,0
2017-04-04T02:05:43.257Z,0
2017-04-04T02:06:43.244Z,0
2017-04-04T02:07:43.225Z,0
2017-04-04T02:08:42.908Z,0
2017-04-04T02:09:42.595Z,0
2017-04-04T02:10:43.183Z,0
2017-04-04T02:11:43.168Z,0
2017-04-04T02:12:43.148Z,0
2017-04-04T02:13:43.140Z,0
2017-04-04T02:14:43.125Z,0
2017-04-04T02:15:43.106Z,0
2017-04-04T02:16:43.085Z,0
2017-04-04T02:17:43.074Z,0
2017-04-04T02:18:43.049Z,0
2017-04-04T02:19:43.036Z,0
2017-04-04T02:20:42.720Z,0
2017-04-04T02:21:42.707Z,0
2017-04-04T02:22:42.994Z,0
2017-04-04T02:23:42.977Z,0
2017-04-04T02:24:42.957Z,0
2017-04-04T02:25:42.943Z,0
2017-04-04T02:26:42.929Z,0
2017-04-04T02:27:42.605Z,0
2017-04-04T02:28:42.898Z,0
2017-04-04T02:29:42.876Z,0
2017-04-04T02:30:42.863Z,0
2017-04-04T02:31:42.542Z,0
2017-04-04T02:32:42.832Z,0
2017-04-04T02:33:42.510Z,0
2017-04-04T02:34:42.800Z,0
2017-04-04T02:35:42.492Z,0
2017-04-04T02:36:42.464Z,0
2017-04-04T02:37:42.751Z,0
2017-04-04T02:38:42.733Z,0
2017-04-04T02:39:42.725Z,0
2017-04-04T02:40:42.714Z,0
2017-04-04T02:41:42.692Z,0
2017-04-04T02:42:42.369Z,0
2017-04-04T02:43:42.658Z,0
2017-04-04T02:44:42.642Z,0
2017-04-04T02:45:42.621Z,0
2017-04-04T02:46:42.309Z,0
2017-04-04T02:47:42.584Z,0
2017-04-04T02:48:42.571Z,0
2017-04-04T02:49:42.559Z,0
2017-04-04T02:50:42.240Z,0
2017-04-04T02:51:42.570Z,0
2017-04-04T02:52:42.501Z,0
2017-04-04T02:53:42.489Z,0
2017-04-04T02:54:42.476Z,0
2017-04-04T02:55:42.459Z,0
2017-04-04T02:56:42.448Z,0
2017-04-04T02:57:42.126Z,0
2017-04-04T02:58:42.410Z,0
2017-04-04T02:59:42.397Z,0
2017-04-04T03:00:42.386Z,0
2017-04-04T03:01:42.065Z,0
2017-04-04T03:02:42.346Z,0
2017-04-04T03:03:42.025Z,0
2017-04-04T03:04:42.318Z,0
2017-04-04T03:05:42.293Z,0
2017-04-04T03:06:42.281Z,0
2017-04-04T03:07:42.267Z,0
2017-04-04T03:08:42.245Z,0
2017-04-04T03:09:42.232Z,0
2017-04-04T03:10:42.216Z,0
2017-04-04T03:11:42.206Z,0
2017-04-04T03:12:42.175Z,0
2017-04-04T03:13:42.161Z,0
2017-04-04T03:14:42.148Z,0
2017-04-04T03:15:41.826Z,0
2017-04-04T03:16:42.114Z,0
2017-04-04T03:17:42.093Z,0
2017-04-04T03:18:42.083Z,0
2017-04-04T03:19:41.760Z,0
2017-04-04T03:20:42.049Z,0
2017-04-04T03:21:41.772Z,0
2017-04-04T03:22:42.014Z,0
2017-04-04T03:23:42.102Z,0
2017-04-04T03:24:41.984Z,0
2017-04-04T03:25:41.970Z,0
2017-04-04T03:26:41.953Z,0
2017-04-04T03:27:41.629Z,0
2017-04-04T03:28:41.915Z,0
2017-04-04T03:29:41.905Z,0
2017-04-04T03:30:41.888Z,0
2017-04-04T03:31:41.869Z,0
2017-04-04T03:32:41.854Z,0
2017-04-04T03:33:41.527Z,0
2017-04-04T03:34:41.819Z,0
2017-04-04T03:35:41.808Z,0
2017-04-04T03:36:41.789Z,0
2017-04-04T03:37:41.765Z,0
2017-04-04T03:38:41.744Z,0
2017-04-04T03:39:41.729Z,0
2017-04-04T03:40:41.723Z,0
2017-04-04T03:41:41.708Z,0
2017-04-04T03:42:41.422Z,0
2017-04-04T03:43:41.669Z,0
2017-04-04T03:44:41.346Z,0
2017-04-04T03:45:41.632Z,0
2017-04-04T03:46:41.618Z,0
2017-04-04T03:47:41.295Z,0
2017-04-04T03:48:41.581Z,0
2017-04-04T03:49:41.563Z,0
2017-04-04T03:50:41.553Z,0
2017-04-04T03:51:41.531Z,0
2017-04-04T03:52:41.523Z,0
2017-04-04T03:53:41.499Z,0
2017-04-04T03:54:41.480Z,0
2017-04-04T03:55:41.470Z,0
2017-04-04T03:56:41.453Z,0
2017-04-04T03:57:41.435Z,0
2017-04-04T03:58:41.418Z,0
2017-04-04T03:59:41.402Z,0
2017-04-04T04:00:41.380Z,0
2017-04-04T04:01:41.065Z,0
2017-04-04T04:02:41.343Z,0
2017-04-04T04:03:41.326Z,0
2017-04-04T04:04:41.015Z,0
2017-04-04T04:05:40.991Z,0
2017-04-04T04:06:40.977Z,0
2017-04-04T04:07:41.260Z,0
2017-04-04T04:08:41.240Z,0
2017-04-04T04:09:41.233Z,0
2017-04-04T04:10:41.211Z,0
2017-04-04T04:11:41.204Z,0
2017-04-04T04:12:41.171Z,0
2017-04-04T04:13:41.164Z,0
2017-04-04T04:14:41.148Z,0
2017-04-04T04:15:41.130Z,0
2017-04-04T04:16:41.109Z,0
2017-04-04T04:17:41.092Z,0
2017-04-04T04:18:41.078Z,0
2017-04-04T04:19:41.063Z,0
2017-04-04T04:20:41.041Z,0
2017-04-04T04:21:41.021Z,0
2017-04-04T04:22:41.003Z,0
2017-04-04T04:23:40.992Z,0
2017-04-04T04:24:40.669Z,0
2017-04-04T04:25:40.653Z,0
2017-04-04T04:26:40.942Z,0
2017-04-04T04:27:40.923Z,0
2017-04-04T04:28:40.913Z,0
2017-04-04T04:29:40.586Z,0
2017-04-04T04:30:40.871Z,0
2017-04-04T04:31:40.552Z,0
2017-04-04T04:32:40.851Z,0
2017-04-04T04:33:40.515Z,0
2017-04-04T04:34:40.802Z,0
2017-04-04T04:35:40.791Z,0
2017-04-04T04:36:40.771Z,0
2017-04-04T04:37:40.743Z,0
2017-04-04T04:38:40.734Z,0
2017-04-04T04:39:40.714Z,0
2017-04-04T04:40:40.694Z,0
2017-04-04T04:41:40.703Z,0
2017-04-04T04:42:40.666Z,0
2017-04-04T04:43:40.649Z,0
2017-04-04T04:44:40.631Z,0
2017-04-04T04:45:40.610Z,0
2017-04-04T04:46:40.594Z,0
2017-04-04T04:47:40.579Z,0
2017-04-04T04:48:40.562Z,0
2017-04-04T04:49:40.555Z,0
2017-04-04T04:50:40.527Z,0
2017-04-04T04:51:40.209Z,0
2017-04-04T04:52:40.489Z,0
2017-04-04T04:53:40.472Z,0
2017-04-04T04:54:40.451Z,0
2017-04-04T04:55:40.437Z,0
2017-04-04T04:56:40.419Z,0
2017-04-04T04:57:40.396Z,0
2017-04-04T04:58:40.384Z,5
2017-04-04T04:59:40.368Z,5
2017-04-04T05:00:40.052Z,5
2017-04-04T05:01:40.334Z,5
2017-04-04T05:02:40.008Z,5
2017-04-04T05:03:39.994Z,5
2017-04-04T05:04:40.294Z,5
2017-04-04T05:05:40.266Z,5
2017-04-04T05:06:40.245Z,5
2017-04-04T05:07:40.224Z,5
2017-04-04T05:08:40.246Z,5
2017-04-04T05:09:40.194Z,5
2017-04-04T05:10:40.170Z,5
2017-04-04T05:11:40.154Z,5
2017-04-04T05:12:39.839Z,5
2017-04-04T05:13:39.819Z,5
2017-04-04T05:14:40.105Z,5
2017-04-04T05:15:40.079Z,5
2017-04-04T05:16:39.763Z,5
2017-04-04T05:17:40.055Z,10
2017-04-04T05:18:40.032Z,10
2017-04-04T05:19:40.015Z,10
2017-04-04T05:20:39.999Z,10
2017-04-04T05:21:39.975Z,10
2017-04-04T05:22:39.967Z,10
2017-04-04T05:23:39.993Z,10
2017-04-04T05:24:39.936Z,10
2017-04-04T05:25:39.905Z,10
2017-04-04T05:26:39.602Z,15
2017-04-04T05:27:39.878Z,15
2017-04-04T05:28:39.854Z,15
2017-04-04T05:29:39.837Z,20
2017-04-04T05:30:39.820Z,20
2017-04-04T05:31:39.801Z,20
2017-04-04T05:32:39.791Z,20
2017-04-04T05:33:39.773Z,20
2017-04-04T05:34:39.749Z,25
2017-04-04T05:35:39.737Z,25
2017-04-04T05:36:39.416Z,25
2017-04-04T05:37:39.708Z,25
2017-04-04T05:38:39.390Z,30
2017-04-04T05:39:39.666Z,30
2017-04-04T05:40:39.649Z,30
2017-04-04T05:41:39.335Z,30
2017-04-04T05:42:39.610Z,30
2017-04-04T05:43:39.607Z,30
2017-04-04T05:44:39.280Z,30
2017-04-04T05:45:39.268Z,30
2017-04-04T05:46:39.556Z,35
2017-04-04T05:47:39.533Z,35
2017-04-04T05:48:39.518Z,35
2017-04-04T05:49:39.501Z,40
2017-04-04T05:50:39.482Z,40
2017-04-04T05:51:39.167Z,40
2017-04-04T05:52:39.458Z,40
2017-04-04T05:53:39.436Z,45
2017-04-04T05:54:39.416Z,50
2017-04-04T05:55:39.104Z,55
2017-04-04T05:56:39.386Z,60
2017-04-04T05:57:39.363Z,60
2017-04-04T05:58:39.353Z,65
2017-04-04T05:59:39.332Z,65
2017-04-04T06:00:39.319Z,65
2017-04-04T06:01:39.003Z,70
2017-04-04T06:02:39.287Z,70
2017-04-04T06:03:39.273Z,75
2017-04-04T06:04:38.954Z,80
2017-04-04T06:05:39.240Z,85
2017-04-04T06:06:39.224Z,90
2017-04-04T06:07:39.210Z,90
2017-04-04T06:08:39.197Z,95
2017-04-04T06:09:39.172Z,100
2017-04-04T06:10:39.153Z,100
2017-04-04T06:13:48.704Z,110
2017-04-04T06:14:19.459Z,115
2017-04-04T06:15:19.451Z,115
2017-04-04T06:16:19.138Z,115
2017-04-04T06:17:19.106Z,120
2017-04-04T06:18:19.390Z,125
2017-04-04T06:19:19.379Z,130
2017-04-04T06:20:19.363Z,135
2017-04-04T06:21:19.040Z,130
2017-04-04T06:22:19.230Z,135
2017-04-04T06:23:19.350Z,140
2017-04-04T06:24:19.293Z,145
2017-04-04T06:25:19.287Z,135
2017-04-04T06:26:19.264Z,135
2017-04-04T06:27:19.252Z,125
2017-04-04T06:28:19.451Z,125
2017-04-04T06:29:18.912Z,120
2017-04-04T06:30:19.200Z,115
2017-04-04T06:31:19.177Z,115
2017-04-04T06:32:18.872Z,120
2017-04-04T06:33:19.150Z,120
2017-04-04T06:34:18.834Z,120
2017-04-04T06:35:19.116Z,120
2017-04-04T06:36:19.108Z,125
2017-04-04T06:37:19.095Z,130
2017-04-04T06:38:19.066Z,135
2017-04-04T06:39:18.758Z,140
2017-04-04T06:40:19.039Z,145
2017-04-04T06:41:19.014Z,155
2017-04-04T06:42:19.002Z,155
2017-04-04T06:43:18.987Z,160
2017-04-04T06:44:18.980Z,165
2017-04-04T06:45:18.954Z,160
2017-04-04T06:46:18.937Z,165
2017-04-04T06:47:18.926Z,165
2017-04-04T06:48:18.904Z,175
2017-04-04T06:49:18.594Z,185
2017-04-04T06:50:18.873Z,180
2017-04-04T06:51:18.858Z,165
2017-04-04T06:52:18.849Z,160
2017-04-04T06:53:18.824Z,165
2017-04-04T06:54:18.815Z,170
2017-04-04T06:55:18.186Z,185
2017-04-04T06:56:18.477Z,205
2017-04-04T06:57:19.959Z,210
2017-04-04T06:58:18.756Z,220
2017-04-04T06:59:18.439Z,225
2017-04-04T07:00:18.712Z,230
2017-04-04T07:01:18.697Z,270
2017-04-04T07:02:18.690Z,280
2017-04-04T07:03:18.564Z,285
2017-04-04T07:04:18.652Z,310
2017-04-04T07:05:18.593Z,335
2017-04-04T07:06:18.321Z,330
2017-04-04T07:07:18.608Z,310
2017-04-04T07:08:18.595Z,345
2017-04-04T07:09:18.580Z,360
2017-04-04T07:10:18.767Z,360
2017-04-04T07:11:18.546Z,340
2017-04-04T07:12:18.530Z,300
2017-04-04T07:13:18.512Z,270
2017-04-04T07:14:18.497Z,245
2017-04-04T07:15:18.473Z,255
2017-04-04T07:16:18.466Z,255
2017-04-04T07:17:18.450Z,235
2017-04-04T07:18:18.434Z,240
2017-04-04T07:19:18.420Z,310
2017-04-04T07:20:18.412Z,345
2017-04-04T07:21:18.396Z,315
2017-04-04T07:22:18.380Z,320
2017-04-04T07:23:18.060Z,315
2017-04-04T07:24:18.038Z,310
2017-04-04T07:25:18.329Z,300
2017-04-04T07:26:18.322Z,280
2017-04-04T07:27:18.001Z,280
2017-04-04T07:28:18.278Z,275
2017-04-04T07:29:18.270Z,260
2017-04-04T07:30:18.256Z,240
2017-04-04T07:31:17.933Z,230
2017-04-04T07:32:17.614Z,225
2017-04-04T07:33:18.210Z,255
2017-04-04T07:34:17.888Z,310
2017-04-04T07:35:18.170Z,290
2017-04-04T07:36:18.154Z,255
2017-04-04T07:37:17.832Z,265
2017-04-04T07:38:18.343Z,290
2017-04-04T07:39:18.115Z,240
2017-04-04T07:40:18.133Z,170
2017-04-04T07:41:18.077Z,195
2017-04-04T07:42:18.068Z,220
2017-04-04T07:43:18.045Z,250
2017-04-04T07:44:18.033Z,285
2017-04-04T07:45:18.014Z,315
2017-04-04T07:46:18.002Z,335
2017-04-04T07:47:17.990Z,425
2017-04-04T07:48:17.968Z,335
2017-04-04T07:49:17.943Z,300
2017-04-04T07:50:17.937Z,280
2017-04-04T07:51:17.312Z,290
2017-04-04T07:52:17.893Z,295
2017-04-04T07:53:17.889Z,505
2017-04-04T07:54:17.570Z,365
2017-04-04T07:55:17.858Z,555
2017-04-04T07:56:17.941Z,570
2017-04-04T07:57:17.818Z,400
2017-04-04T08:10:20.491Z,585
2017-04-04T08:10:36.339Z,530
2017-04-04T08:11:36.623Z,630
2017-04-04T08:12:36.607Z,595
2017-04-04T08:13:36.795Z,620
2017-04-04T08:14:36.574Z,535
2017-04-04T08:15:36.558Z,530
2017-04-04T08:16:36.553Z,595
2017-04-04T08:17:36.221Z,760
2017-04-04T08:18:36.224Z,505
2017-04-04T08:19:36.494Z,420
2017-04-04T08:20:36.181Z,375
2017-04-04T08:21:36.455Z,360
2017-04-04T08:22:36.443Z,345
2017-04-04T08:23:36.422Z,345
2017-04-04T08:24:36.113Z,380
2017-04-04T08:25:36.097Z,385
2017-04-04T08:26:36.074Z,360
2017-04-04T08:27:36.405Z,330
2017-04-04T08:28:36.042Z,310
2017-04-04T08:29:36.018Z,330
2017-04-04T08:30:36.005Z,340
2017-04-04T08:31:36.024Z,355
2017-04-04T08:32:36.274Z,605
2017-04-04T08:33:35.953Z,995
2017-04-04T08:34:36.239Z,1110
2017-04-04T08:35:36.215Z,525
2017-04-04T08:36:35.605Z,445
2017-04-04T08:37:49.574Z,750
2017-04-04T08:38:36.166Z,495
2017-04-04T08:39:36.145Z,585
2017-04-04T08:40:50.793Z,670
2017-04-04T08:41:36.320Z,975
2017-04-04T08:42:36.100Z,590
2017-04-04T08:43:35.776Z,805
2017-04-04T08:44:35.769Z,985
2017-04-04T08:45:36.104Z,950
2017-04-04T08:46:35.733Z,1055
2017-04-04T08:47:36.022Z,1230
2017-04-04T08:48:36.003Z,825
2017-04-04T08:49:35.685Z,695
2017-04-04T08:50:35.679Z,615
2017-04-04T08:51:35.953Z,620
2017-04-04T08:52:35.935Z,780
2017-04-04T08:53:35.918Z,855
2017-04-04T08:54:35.641Z,815
2017-04-04T08:55:35.691Z,585
2017-04-04T08:56:35.872Z,535
2017-04-04T08:57:35.851Z,510
2017-04-04T08:58:35.839Z,460
2017-04-04T08:59:35.516Z,425
2017-04-04T09:00:35.505Z,420
2017-04-04T09:01:35.487Z,405
2017-04-04T09:02:35.168Z,380
2017-04-04T09:03:35.759Z,355
2017-04-04T09:04:35.752Z,340
2017-04-04T09:05:35.729Z,320
2017-04-04T09:06:35.708Z,300
2017-04-04T09:07:35.388Z,270
2017-04-04T09:08:35.369Z,265
2017-04-04T09:09:35.672Z,250
2017-04-04T09:10:35.040Z,235
2017-04-04T09:11:35.624Z,225
2017-04-04T09:12:35.306Z,215
2017-04-04T09:13:35.285Z,200
2017-04-04T09:14:35.267Z,190
2017-04-04T09:15:35.551Z,185
2017-04-04T09:16:35.534Z,190
2017-04-04T09:17:35.519Z,205
2017-04-04T09:18:34.902Z,205
2017-04-04T09:19:35.399Z,220
2017-04-04T09:20:35.468Z,230
2017-04-04T09:21:35.452Z,250
2017-04-04T09:22:35.441Z,280
2017-04-04T09:23:35.121Z,320
2017-04-04T09:24:35.410Z,370
2017-04-04T09:25:34.779Z,415
2017-04-04T09:26:35.367Z,490
2017-04-04T09:27:35.049Z,555
2017-04-04T09:28:35.031Z,605
2017-04-04T09:29:35.319Z,615
2017-04-04T09:30:35.298Z,630
2017-04-04T09:31:35.287Z,635
2017-04-04T09:32:35.264Z,620
2017-04-04T09:33:34.953Z,590
2017-04-04T09:34:35.232Z,560
2017-04-04T09:35:35.232Z,525
2017-04-04T09:36:35.202Z,550
2017-04-04T09:37:35.189Z,530
2017-04-04T09:38:35.164Z,485
2017-04-04T09:39:35.150Z,420
2017-04-04T09:40:35.135Z,350
2017-04-04T09:41:35.118Z,295
2017-04-04T09:42:35.105Z,270
2017-04-04T09:43:34.782Z,260
2017-04-04T09:44:34.682Z,255
2017-04-04T09:45:35.059Z,260
2017-04-04T09:46:35.036Z,260
2017-04-04T09:47:35.016Z,255
2017-04-04T09:48:35.208Z,255
2017-04-04T09:49:48.614Z,255
2017-04-04T09:50:34.969Z,260
2017-04-04T09:51:34.952Z,270
2017-04-04T09:52:35.134Z,270
2017-04-04T09:53:35.117Z,265
2017-04-04T09:54:34.598Z,265
2017-04-04T09:55:34.586Z,270
2017-04-04T09:56:34.558Z,270
2017-04-04T09:57:34.539Z,275
2017-04-04T09:58:34.831Z,270
2017-04-04T09:59:34.807Z,275
2017-04-04T10:00:34.796Z,275
2017-04-04T10:01:34.775Z,275
2017-04-04T10:02:34.809Z,275
2017-04-04T10:03:34.745Z,265
2017-04-04T10:04:34.727Z,255
2017-04-04T10:05:34.727Z,250
2017-04-04T10:06:34.397Z,260
2017-04-04T10:07:34.676Z,265
2017-04-04T10:08:34.664Z,265
2017-04-04T10:09:34.642Z,270
2017-04-04T10:10:34.630Z,270
2017-04-04T10:11:34.307Z,270
2017-04-04T10:12:34.592Z,270
2017-04-04T10:13:34.576Z,275
2017-04-04T10:14:34.553Z,285
2017-04-04T10:15:34.549Z,290
2017-04-04T10:16:34.527Z,290
2017-04-04T10:17:34.720Z,295
2017-04-04T10:18:34.484Z,305
2017-04-04T10:19:34.479Z,310
2017-04-04T10:20:34.463Z,310
2017-04-04T10:21:34.437Z,315
2017-04-04T10:22:34.665Z,315
2017-04-04T10:23:34.407Z,325
2017-04-04T10:24:34.427Z,330
2017-04-04T10:25:34.374Z,335
2017-04-04T10:26:34.563Z,335
2017-04-04T10:27:34.047Z,340
2017-04-04T10:28:34.329Z,345
2017-04-04T10:29:34.319Z,350
2017-04-04T10:30:33.996Z,355
2017-04-04T10:31:33.982Z,350
2017-04-04T10:32:34.263Z,345
2017-04-04T10:33:34.243Z,340
2017-04-04T10:34:34.224Z,340
2017-04-04T10:35:34.212Z,335
2017-04-04T10:36:33.893Z,335
2017-04-04T10:37:34.180Z,345
2017-04-04T10:38:34.160Z,345
2017-04-04T10:39:34.143Z,350
2017-04-04T10:40:34.125Z,350
2017-04-04T10:41:34.136Z,340
2017-04-04T10:42:34.087Z,335
2017-04-04T10:43:34.175Z,330
2017-04-04T10:44:34.064Z,330
2017-04-04T10:45:34.091Z,325
2017-04-04T10:46:34.025Z,325
2017-04-04T10:47:34.011Z,325
2017-04-04T10:48:33.989Z,330
2017-04-04T10:49:33.691Z,340
2017-04-04T10:50:33.949Z,345
2017-04-04T10:51:33.852Z,350
2017-04-04T10:52:33.617Z,350
2017-04-04T10:53:33.906Z,350
2017-04-04T10:54:34.085Z,355
2017-04-04T10:55:34.075Z,365
2017-04-04T10:56:33.748Z,375
2017-04-04T10:57:33.871Z,375
2017-04-04T10:58:33.808Z,380
2017-04-04T10:59:33.789Z,375
2017-04-04T11:00:33.977Z,380
2017-04-04T11:01:33.752Z,385
2017-04-04T11:02:33.430Z,400
2017-04-04T11:03:33.723Z,425
2017-04-04T11:04:33.702Z,415
2017-04-04T11:05:33.686Z,415
2017-04-04T11:06:33.659Z,425
2017-04-04T11:07:33.642Z,455
2017-04-04T11:08:33.324Z,455
2017-04-04T11:09:33.609Z,465
2017-04-04T11:10:33.588Z,465
2017-04-04T11:11:33.570Z,455
2017-04-04T11:12:33.552Z,425
2017-04-04T11:13:33.531Z,410
2017-04-04T11:14:33.508Z,410
2017-04-04T11:15:33.515Z,400
2017-04-04T11:16:33.477Z,395
2017-04-04T11:17:33.455Z,400
2017-04-04T11:18:33.435Z,400
2017-04-04T11:19:33.420Z,410
2017-04-04T11:20:33.446Z,415
2017-04-04T11:21:33.379Z,425
2017-04-04T11:22:33.359Z,430
2017-04-04T11:23:33.348Z,430
2017-04-04T11:24:33.319Z,440
2017-04-04T11:25:33.299Z,460
2017-04-04T11:26:33.281Z,485
2017-04-04T11:27:32.961Z,470
2017-04-04T11:28:33.248Z,450
2017-04-04T11:29:33.219Z,455
2017-04-04T11:30:32.901Z,460
2017-04-04T11:31:33.176Z,460
2017-04-04T11:32:33.162Z,485
2017-04-04T11:33:33.140Z,510
2017-04-04T11:34:32.820Z,520
2017-04-04T11:35:33.104Z,530
2017-04-04T11:36:32.774Z,535
2017-04-04T11:37:33.056Z,525
2017-04-04T11:38:33.038Z,525
2017-04-04T11:39:33.016Z,520
2017-04-04T11:40:32.994Z,535
2017-04-04T11:41:32.974Z,550
2017-04-04T11:42:32.649Z,545
2017-04-04T11:43:32.635Z,565
2017-04-04T11:44:32.915Z,590
2017-04-04T11:45:32.889Z,620
2017-04-04T11:46:32.871Z,620
2017-04-04T11:47:32.845Z,585
2017-04-04T11:48:32.839Z,580
2017-04-04T11:49:32.807Z,600
2017-04-04T11:50:32.481Z,610
2017-04-04T11:51:32.764Z,630
2017-04-04T11:52:32.740Z,630
2017-04-04T11:53:32.422Z,635
2017-04-04T11:54:32.714Z,660
2017-04-04T11:55:32.382Z,660
2017-04-04T11:56:32.361Z,645
2017-04-04T11:57:32.645Z,645
2017-04-04T11:58:32.323Z,650
2017-04-04T11:59:32.333Z,635
2017-04-04T12:00:32.282Z,635
2017-04-04T12:01:32.259Z,660
2017-04-04T12:02:32.235Z,705
2017-04-04T12:03:32.215Z,700
2017-04-04T12:04:32.503Z,650
2017-04-04T12:05:32.473Z,585
2017-04-04T12:06:32.157Z,565
2017-04-04T12:07:32.138Z,580
2017-04-04T12:08:32.413Z,590
2017-04-04T12:09:32.400Z,595
2017-04-04T12:10:32.389Z,580
2017-04-04T12:11:32.354Z,585
2017-04-04T12:12:32.031Z,575
2017-04-04T12:13:32.013Z,545
2017-04-04T12:14:32.294Z,515
2017-04-04T12:15:32.267Z,540
2017-04-04T12:16:32.272Z,600
2017-04-04T12:17:31.937Z,610
2017-04-04T12:18:32.206Z,595
2017-04-04T12:19:32.189Z,585
2017-04-04T12:20:32.176Z,570
2017-04-04T12:21:32.189Z,550
2017-04-04T12:22:32.124Z,545
2017-04-04T12:23:32.107Z,545
2017-04-04T12:24:32.086Z,545
2017-04-04T12:25:32.067Z,555
2017-04-04T12:26:32.044Z,565
2017-04-04T12:27:31.728Z,570
2017-04-04T12:28:32.005Z,560
2017-04-04T12:29:31.983Z,545
2017-04-04T12:30:31.963Z,565
2017-04-04T12:31:31.953Z,625
2017-04-04T12:32:31.930Z,720
2017-04-04T12:33:31.905Z,800
2017-04-04T12:34:31.887Z,810
2017-04-04T12:35:31.870Z,790
2017-04-04T12:36:31.543Z,855
2017-04-04T12:37:31.869Z,875
2017-04-04T12:38:31.802Z,685
2017-04-04T12:39:31.794Z,650
2017-04-04T12:40:31.772Z,640
2017-04-04T12:41:31.750Z,615
2017-04-04T12:42:31.432Z,560
2017-04-04T12:43:31.715Z,540
2017-04-04T12:44:31.397Z,550
2017-04-04T12:45:31.373Z,555
2017-04-04T12:46:31.652Z,565
2017-04-04T12:47:31.630Z,585
2017-04-04T12:48:31.316Z,590
2017-04-04T12:49:31.302Z,615
2017-04-04T12:50:31.277Z,650
2017-04-04T12:51:31.261Z,690
2017-04-04T12:52:31.243Z,845
2017-04-04T12:53:31.520Z,850
2017-04-04T12:54:31.539Z,685
2017-04-04T12:55:31.185Z,615
2017-04-04T12:56:30.872Z,565
2017-04-04T12:57:31.142Z,565
2017-04-04T12:58:31.431Z,590
2017-04-04T12:59:31.104Z,590
2017-04-04T13:00:31.088Z,625
2017-04-04T13:01:31.073Z,630
2017-04-04T13:02:31.043Z,615
2017-04-04T13:03:31.022Z,610
2017-04-04T13:04:31.356Z,535
2017-04-04T13:05:31.301Z,480
2017-04-04T13:06:31.274Z,490
2017-04-04T13:07:31.254Z,520
2017-04-04T13:08:31.240Z,550
2017-04-04T13:09:31.218Z,580
2017-04-04T13:10:31.205Z,565
2017-04-04T13:11:31.185Z,510
2017-04-04T13:12:30.861Z,470
2017-04-04T13:13:31.145Z,465
2017-04-04T13:14:31.123Z,440
2017-04-04T13:15:31.113Z,445
2017-04-04T13:16:31.094Z,465
2017-04-04T13:17:30.768Z,475
2017-04-04T13:18:31.051Z,465
2017-04-04T13:19:31.089Z,475
2017-04-04T13:20:31.015Z,465
2017-04-04T13:21:31.007Z,475
2017-04-04T13:22:30.989Z,450
2017-04-04T13:23:30.978Z,435
2017-04-04T13:24:30.967Z,430
2017-04-04T13:25:30.928Z,455
2017-04-04T13:26:30.912Z,465
2017-04-04T13:27:30.593Z,455
2017-04-04T13:28:30.872Z,450
2017-04-04T13:29:29.951Z,430
2017-04-04T13:30:30.843Z,435
2017-04-04T13:31:30.820Z,450
2017-04-04T13:32:30.507Z,455
2017-04-04T13:33:30.790Z,480
2017-04-04T13:34:30.782Z,475
2017-04-04T13:35:30.749Z,455
2017-04-04T13:36:30.439Z,440
2017-04-04T13:37:30.741Z,425
2017-04-04T13:38:30.708Z,430
2017-04-04T13:39:30.725Z,460
2017-04-04T13:40:30.684Z,480
2017-04-04T13:41:30.344Z,490
2017-04-04T13:42:30.630Z,500
2017-04-04T13:43:30.302Z,475
2017-04-04T13:44:30.292Z,460
2017-04-04T13:45:30.573Z,440
2017-04-04T13:46:30.561Z,425
2017-04-04T13:47:30.536Z,425
2017-04-04T13:48:30.522Z,425
2017-04-04T13:49:30.498Z,420
2017-04-04T13:50:30.518Z,430
2017-04-04T13:51:30.467Z,425
2017-04-04T13:52:30.150Z,420
2017-04-04T13:53:30.420Z,425
2017-04-04T13:54:30.414Z,420
2017-04-04T13:55:29.807Z,385
2017-04-04T13:56:29.777Z,365
2017-04-04T13:57:30.056Z,355
2017-04-04T13:58:30.347Z,355
2017-04-04T13:59:30.020Z,355
2017-04-04T14:00:30.011Z,350
2017-04-04T14:01:30.292Z,330
2017-04-04T14:02:29.967Z,320
2017-04-04T14:03:29.949Z,300
2017-04-04T14:04:30.235Z,280
2017-04-04T14:05:30.223Z,270
2017-04-04T14:06:30.198Z,265
2017-04-04T14:07:30.183Z,275
2017-04-04T14:08:30.164Z,275
2017-04-04T14:09:30.143Z,285
2017-04-04T14:10:29.824Z,290
2017-04-04T14:11:30.112Z,280
2017-04-04T14:12:30.096Z,250
2017-04-04T14:13:29.779Z,230
2017-04-04T14:14:29.751Z,220
2017-04-04T14:15:30.031Z,220
2017-04-04T14:16:30.015Z,230
2017-04-04T14:17:30.001Z,225
2017-04-04T14:18:29.978Z,220
2017-04-04T14:19:29.659Z,215
2017-04-04T14:20:29.943Z,220
2017-04-04T14:21:29.925Z,235
2017-04-04T14:22:29.605Z,240